Time;durP1;ratioP1;P1;durP2;ratioP2;P2;SDS_P1;SDS_P2;PMS_P1;PMS_P2;Temp;Humidity;BMP_temperature;BMP_pressure;BME280_temperature;BME280_humidity;BME280_pressure;Samples;Min_cycle;Max_cycle;Signal;HPM_P1;HPM_P2
2022/08/30 00:01:08;;;;;;;8.93;5.30;;;13.50;99.90;;;;;;5048778;28;20493;-47
2022/08/30 00:03:44;;;;;;;7.03;5.63;;;13.50;99.90;;;;;;5049486;28;20062;-45
2022/08/30 00:06:11;;;;;;;5.05;4.35;;;14.10;99.90;;;;;;5048868;28;20044;-45
2022/08/30 00:08:39;;;;;;;10.63;4.75;;;13.80;99.90;;;;;;5048912;28;20122;-44
2022/08/30 00:11:08;;;;;;;7.30;4.60;;;13.70;99.90;;;;;;5048921;28;20039;-46
2022/08/30 00:13:36;;;;;;;9.40;4.68;;;13.70;99.90;;;;;;5049121;28;20095;-44
2022/08/30 00:16:02;;;;;;;10.15;5.15;;;13.80;99.90;;;;;;5048968;28;20049;-46
2022/08/30 00:18:28;;;;;;;5.72;4.82;;;13.80;99.90;;;;;;5048849;28;20047;-44
2022/08/30 00:20:54;;;;;;;8.48;5.32;;;13.80;99.90;;;;;;5048481;28;20037;-46
2022/08/30 00:23:21;;;;;;;7.40;5.50;;;13.90;99.90;;;;;;5048749;28;20493;-44
2022/08/30 00:25:47;;;;;;;6.10;4.55;;;14.50;99.90;;;;;;5048484;28;20048;-46
2022/08/30 00:28:13;;;;;;;7.32;5.28;;;13.90;99.90;;;;;;5048671;28;20549;-45
2022/08/30 00:30:40;;;;;;;7.80;5.28;;;13.90;99.90;;;;;;5048590;28;20112;-45
2022/08/30 00:33:06;;;;;;;9.77;5.47;;;14.00;99.90;;;;;;5048374;28;20079;-45
2022/08/30 00:35:32;;;;;;;9.98;4.95;;;13.90;99.90;;;;;;5048545;28;20041;-44
2022/08/30 00:37:58;;;;;;;7.53;4.32;;;13.80;99.90;;;;;;5047889;28;20045;-46
2022/08/30 00:40:25;;;;;;;8.15;5.00;;;13.80;99.90;;;;;;5048445;28;20045;-44
2022/08/30 00:42:51;;;;;;;6.07;5.00;;;14.10;99.90;;;;;;5048322;28;20037;-46
2022/08/30 00:45:21;;;;;;;8.10;5.28;;;13.80;99.90;;;;;;5048152;28;20052;-46
2022/08/30 00:47:47;;;;;;;9.13;5.63;;;13.70;99.90;;;;;;5048198;28;20048;-46
2022/08/30 00:50:16;;;;;;;8.75;5.85;;;13.70;99.90;;;;;;5048016;28;20122;-45
2022/08/30 00:52:46;;;;;;;10.25;6.03;;;13.70;99.90;;;;;;5047940;28;20590;-47
2022/08/30 00:55:13;;;;;;;8.75;6.35;;;13.60;99.90;;;;;;5048085;28;20045;-47
2022/08/30 00:57:41;;;;;;;9.55;6.18;;;13.60;99.90;;;;;;5048123;28;20060;-45
2022/08/30 01:00:08;;;;;;;7.35;6.05;;;13.60;99.90;;;;;;5048015;28;20399;-46
2022/08/30 01:02:34;;;;;;;10.77;6.47;;;13.60;99.90;;;;;;5048296;28;20112;-45
2022/08/30 01:05:02;;;;;;;7.47;6.00;;;14.20;99.90;;;;;;5047957;28;20587;-45
2022/08/30 01:07:28;;;;;;;7.88;5.53;;;13.40;99.90;;;;;;5047944;28;20071;-45
2022/08/30 01:09:54;;;;;;;8.55;6.57;;;13.40;99.90;;;;;;5047670;28;20049;-45
2022/08/30 01:12:20;;;;;;;9.02;6.90;;;13.70;99.90;;;;;;5047859;28;20097;-46
2022/08/30 01:14:46;;;;;;;6.82;6.10;;;13.60;99.90;;;;;;5048000;28;20099;-47
2022/08/30 01:17:13;;;;;;;9.15;6.43;;;13.60;99.90;;;;;;5048082;28;20439;-46
2022/08/30 01:19:59;;;;;;;8.77;6.38;;;14.50;99.90;;;;;;5047895;28;20045;-45
2022/08/30 01:22:37;;;;;;;7.75;6.65;;;13.50;99.90;;;;;;5047585;28;20041;-45
2022/08/30 01:25:05;;;;;;;8.48;6.30;;;13.40;99.90;;;;;;5048418;28;20230;-44
2022/08/30 01:27:33;;;;;;;7.60;6.25;;;13.40;99.90;;;;;;5047885;28;20045;-47
2022/08/30 01:29:59;;;;;;;8.30;5.93;;;13.10;99.90;;;;;;5047955;28;20053;-46
2022/08/30 01:32:28;;;;;;;8.32;6.40;;;13.30;99.90;;;;;;5047476;28;20522;-45
2022/08/30 01:34:54;;;;;;;8.00;6.47;;;13.20;99.90;;;;;;5048049;28;20049;-47
2022/08/30 01:37:28;;;;;;;7.47;6.22;;;13.10;99.90;;;;;;5047697;28;20095;-45
2022/08/30 01:39:55;;;;;;;12.55;6.75;;;13.30;99.90;;;;;;5049134;28;20049;-44
2022/08/30 01:42:21;;;;;;;8.65;6.88;;;13.00;99.90;;;;;;5051872;28;20045;-46
2022/08/30 01:44:47;;;;;;;9.60;7.28;;;12.80;99.90;;;;;;5051703;28;20044;-44
2022/08/30 01:47:14;;;;;;;9.85;7.15;;;13.60;99.90;;;;;;5051555;28;20115;-45
2022/08/30 01:49:40;;;;;;;11.65;6.75;;;12.90;99.90;;;;;;5051509;28;20120;-45
2022/08/30 01:52:07;;;;;;;9.57;6.75;;;12.60;99.90;;;;;;5051494;28;20040;-44
2022/08/30 01:54:35;;;;;;;9.32;7.93;;;12.60;99.90;;;;;;5052046;28;20040;-45
2022/08/30 01:57:03;;;;;;;10.75;7.47;;;12.60;99.90;;;;;;5051400;28;20045;-46
2022/08/30 01:59:29;;;;;;;11.68;8.23;;;12.50;99.90;;;;;;5051825;28;20063;-45
2022/08/30 02:01:54;;;;;;;9.15;7.72;;;13.00;99.90;;;;;;5051637;28;20487;-47
2022/08/30 02:04:20;;;;;;;9.70;7.88;;;;;;;;;;5050247;28;20506;-46
2022/08/30 02:06:47;;;;;;;8.93;8.00;;;12.50;99.90;;;;;;5051416;28;20043;-45
2022/08/30 02:09:13;;;;;;;14.35;8.30;;;12.80;99.90;;;;;;5050802;28;20106;-46
2022/08/30 02:11:39;;;;;;;12.52;8.77;;;13.00;99.90;;;;;;5050703;28;20053;-45
2022/08/30 02:14:05;;;;;;;11.48;8.80;;;12.30;99.90;;;;;;5050736;28;20123;-44
2022/08/30 02:16:31;;;;;;;14.27;8.93;;;12.40;99.90;;;;;;5051032;28;20047;-45
2022/08/30 02:18:57;;;;;;;15.70;9.85;;;12.60;99.90;;;;;;5050763;28;20139;-45
2022/08/30 02:21:24;;;;;;;15.98;9.98;;;12.60;99.90;;;;;;5050890;28;20210;-46
2022/08/30 02:23:51;;;;;;;14.48;9.82;;;12.80;99.90;;;;;;5049338;28;20411;-45
2022/08/30 02:26:17;;;;;;;18.20;9.30;;;12.80;99.90;;;;;;5050911;28;20045;-46
2022/08/30 02:28:44;;;;;;;17.48;10.32;;;12.80;99.90;;;;;;5051257;28;20049;-45
2022/08/30 02:31:10;;;;;;;14.20;9.48;;;12.70;99.90;;;;;;5050587;28;20110;-45
2022/08/30 02:33:36;;;;;;;12.68;9.60;;;12.50;99.90;;;;;;5050978;28;20041;-45
2022/08/30 02:36:06;;;;;;;14.02;9.80;;;12.70;99.90;;;;;;5050981;28;20468;-46
2022/08/30 02:38:32;;;;;;;11.68;8.63;;;12.60;99.90;;;;;;5050784;28;20463;-45
2022/08/30 02:40:58;;;;;;;13.52;9.38;;;12.60;99.90;;;;;;5050187;28;20044;-45
2022/08/30 02:43:24;;;;;;;14.25;9.50;;;12.50;99.90;;;;;;5050902;28;20048;-45
2022/08/30 02:45:50;;;;;;;13.75;9.32;;;12.50;99.90;;;;;;5050724;28;20075;-44
2022/08/30 02:48:15;;;;;;;12.23;8.88;;;12.50;99.90;;;;;;5050169;28;20403;-46
2022/08/30 02:50:43;;;;;;;10.32;8.60;;;12.60;99.90;;;;;;5050629;28;20152;-46
2022/08/30 02:53:09;;;;;;;12.13;8.82;;;12.60;99.90;;;;;;5050363;28;20037;-45
2022/08/30 02:55:35;;;;;;;13.77;8.63;;;12.70;99.90;;;;;;5049157;28;20041;-45
2022/08/30 02:58:01;;;;;;;10.65;9.25;;;12.40;99.90;;;;;;5050557;28;20044;-46
2022/08/30 03:00:27;;;;;;;10.40;8.90;;;12.40;99.90;;;;;;5050645;28;20128;-46
2022/08/30 03:02:53;;;;;;;12.98;8.63;;;12.40;99.90;;;;;;5050416;28;20542;-45
2022/08/30 03:05:19;;;;;;;14.50;9.57;;;12.40;99.90;;;;;;5050196;28;20068;-48
2022/08/30 03:07:46;;;;;;;12.73;9.48;;;12.30;99.90;;;;;;5049756;28;20041;-45
2022/08/30 03:10:14;;;;;;;11.50;9.25;;;12.30;99.90;;;;;;5049794;28;20049;-46
2022/08/30 03:12:40;;;;;;;10.32;8.80;;;12.30;99.90;;;;;;5049787;28;20461;-45
2022/08/30 03:15:09;;;;;;;11.85;9.50;;;12.30;99.90;;;;;;5049691;28;20333;-47
2022/08/30 03:17:35;;;;;;;14.95;8.57;;;12.30;99.90;;;;;;5049784;28;20455;-44
2022/08/30 03:20:01;;;;;;;14.52;8.80;;;12.20;99.90;;;;;;5049759;28;20128;-46
2022/08/30 03:22:27;;;;;;;10.35;7.72;;;12.20;99.90;;;;;;5050034;28;20040;-44
2022/08/30 03:24:56;;;;;;;14.10;10.10;;;11.90;99.90;;;;;;5050290;28;20041;-46
2022/08/30 03:27:22;;;;;;;9.07;7.38;;;12.80;99.90;;;;;;5050229;28;20048;-45
2022/08/30 03:29:48;;;;;;;11.00;8.35;;;11.90;99.90;;;;;;5050157;28;20433;-46
2022/08/30 03:32:14;;;;;;;9.18;7.60;;;11.80;99.90;;;;;;5050017;28;20102;-45
2022/08/30 03:34:39;;;;;;;8.80;7.90;;;11.70;99.90;;;;;;5050140;28;20389;-45
2022/08/30 03:37:05;;;;;;;9.57;8.57;;;11.60;99.90;;;;;;5050288;28;20553;-49
2022/08/30 03:39:31;;;;;;;9.68;8.02;;;11.70;99.90;;;;;;5049569;28;20041;-44
2022/08/30 03:41:57;;;;;;;12.65;8.35;;;11.40;99.90;;;;;;5049516;28;20470;-46
2022/08/30 03:44:23;;;;;;;13.60;9.80;;;11.40;99.90;;;;;;5047718;28;20060;-46
2022/08/30 03:46:49;;;;;;;13.68;9.82;;;11.20;99.90;;;;;;5048714;28;20048;-44
2022/08/30 03:49:15;;;;;;;14.27;10.02;;;11.00;99.90;;;;;;5049013;28;20513;-46
2022/08/30 03:51:41;;;;;;;13.43;10.93;;;11.40;99.90;;;;;;5050060;28;20516;-45
2022/08/30 03:54:07;;;;;;;15.23;10.40;;;10.90;99.90;;;;;;5049529;28;20037;-46
2022/08/30 03:56:32;;;;;;;13.63;9.93;;;10.80;99.90;;;;;;5048575;28;20036;-45
2022/08/30 03:58:58;;;;;;;11.95;9.90;;;10.90;99.90;;;;;;5045172;28;20417;-54
2022/08/30 04:01:24;;;;;;;13.75;9.23;;;10.90;99.90;;;;;;5006986;28;20048;-56
2022/08/30 04:03:50;;;;;;;28.67;10.38;;;10.60;99.90;;;;;;5043245;28;20138;-57
2022/08/30 04:06:16;;;;;;;13.45;9.73;;;11.00;99.90;;;;;;5045045;28;20486;-56
2022/08/30 04:08:43;;;;;;;17.00;12.20;;;10.70;99.90;;;;;;5045541;28;20045;-58
2022/08/30 04:11:09;;;;;;;17.02;12.40;;;10.60;99.90;;;;;;5045335;28;20116;-56
2022/08/30 04:13:35;;;;;;;15.05;11.48;;;10.60;99.90;;;;;;5045485;28;20132;-60
2022/08/30 04:16:00;;;;;;;16.17;11.90;;;10.70;99.90;;;;;;5045433;28;20456;-58
2022/08/30 04:18:26;;;;;;;21.42;14.40;;;10.60;99.90;;;;;;5045468;28;20052;-58
2022/08/30 04:20:52;;;;;;;19.50;13.63;;;11.40;99.90;;;;;;5044753;28;20037;-46
2022/08/30 04:23:19;;;;;;;19.52;12.65;;;10.80;99.90;;;;;;5044582;28;20041;-46
2022/08/30 04:25:45;;;;;;;12.98;11.20;;;10.50;99.90;;;;;;5045012;28;20436;-43
2022/08/30 04:28:11;;;;;;;17.05;13.13;;;10.30;99.90;;;;;;5042794;28;20055;-44
2022/08/30 04:30:42;;;;;;;19.55;12.80;;;10.80;99.90;;;;;;5044803;28;20052;-46
2022/08/30 04:33:08;;;;;;;20.30;10.77;;;11.10;99.90;;;;;;5045040;28;20459;-42
2022/08/30 04:35:34;;;;;;;19.20;11.93;;;10.20;99.90;;;;;;5046873;28;20489;-42
2022/08/30 04:37:59;;;;;;;17.85;11.77;;;10.30;99.90;;;;;;5046964;28;20052;-42
2022/08/30 04:40:25;;;;;;;12.48;10.13;;;10.30;99.90;;;;;;5046414;28;20044;-43
2022/08/30 04:42:55;;;;;;;16.30;9.77;;;10.30;99.90;;;;;;5046951;28;20033;-42
2022/08/30 04:45:21;;;;;;;14.85;11.70;;;10.20;99.90;;;;;;5046546;28;20044;-43
2022/08/30 04:47:47;;;;;;;13.57;10.32;;;10.90;99.90;;;;;;5046835;28;20398;-42
2022/08/30 04:50:17;;;;;;;12.77;10.23;;;;;;;;;;5046409;28;20107;-42
2022/08/30 04:52:42;;;;;;;20.73;13.73;;;10.10;99.90;;;;;;5047078;28;20049;-42
2022/08/30 04:55:09;;;;;;;19.77;13.88;;;10.10;99.90;;;;;;5046393;28;20037;-42
2022/08/30 04:57:36;;;;;;;18.85;12.93;;;10.20;99.90;;;;;;5046623;28;20045;-43
2022/08/30 05:00:05;;;;;;;18.20;14.35;;;10.40;99.90;;;;;;5046939;28;20037;-42
2022/08/30 05:02:31;;;;;;;26.27;17.30;;;10.30;99.90;;;;;;5046595;28;20037;-42
2022/08/30 05:07:40;;;;;;;22.83;15.70;;;10.40;99.90;;;;;;5047060;28;20165;-42
2022/08/30 05:10:06;;;;;;;23.48;15.90;;;10.50;99.90;;;;;;5046473;28;20067;-42
2022/08/30 05:12:32;;;;;;;22.23;15.85;;;10.50;99.90;;;;;;5046577;28;20060;-43
2022/08/30 05:14:58;;;;;;;23.48;15.27;;;10.50;99.90;;;;;;5047123;28;20234;-43
2022/08/30 05:17:24;;;;;;;21.15;14.73;;;10.80;99.90;;;;;;5051061;28;20052;-43
2022/08/30 05:19:49;;;;;;;23.52;15.82;;;10.50;99.90;;;;;;5049558;28;20149;-43
2022/08/30 05:22:15;;;;;;;20.15;14.75;;;10.40;99.90;;;;;;5050579;28;20079;-42
2022/08/30 05:24:41;;;;;;;24.27;15.38;;;10.60;99.90;;;;;;5050597;28;20253;-42
2022/08/30 05:27:06;;;;;;;26.73;16.45;;;10.90;99.90;;;;;;5048987;28;20047;-42
2022/08/30 05:29:32;;;;;;;20.73;15.65;;;10.80;99.90;;;;;;5050635;28;20238;-43
2022/08/30 05:31:59;;;;;;;16.42;14.13;;;11.00;99.90;;;;;;5050585;28;20044;-42
2022/08/30 05:34:25;;;;;;;18.60;13.80;;;11.70;99.90;;;;;;5050193;28;20037;-42
2022/08/30 05:36:52;;;;;;;16.40;13.10;;;11.90;99.90;;;;;;5050209;28;20490;-42
2022/08/30 05:39:17;;;;;;;17.98;13.93;;;11.90;99.90;;;;;;5050221;28;20045;-42
2022/08/30 05:41:43;;;;;;;15.48;13.18;;;11.80;99.90;;;;;;5050184;28;20053;-42
2022/08/30 05:44:09;;;;;;;15.70;13.02;;;11.70;99.90;;;;;;5049749;28;20501;-44
2022/08/30 05:46:35;;;;;;;17.58;12.30;;;12.40;99.90;;;;;;5050263;28;20052;-42
2022/08/30 05:49:04;;;;;;;16.13;11.40;;;11.70;99.90;;;;;;5049892;28;20045;-43
2022/08/30 05:51:33;;;;;;;12.43;10.65;;;11.50;99.90;;;;;;5050088;28;20040;-43
2022/08/30 05:53:59;;;;;;;14.30;10.35;;;12.00;99.90;;;;;;5049798;28;20443;-43
2022/08/30 05:56:31;;;;;;;12.75;9.60;;;12.40;99.90;;;;;;5049826;28;20045;-43
2022/08/30 05:58:57;;;;;;;;;;;12.20;99.90;;;;;;5050249;28;20049;-42
2022/08/30 06:01:31;;;;;;;12.13;8.77;;;12.70;99.90;;;;;;5049719;28;20256;-42
2022/08/30 06:04:00;;;;;;;8.55;7.70;;;14.30;99.90;;;;;;5050041;28;20045;-43
2022/08/30 06:06:27;;;;;;;10.10;7.10;;;15.60;99.90;;;;;;5049443;28;20386;-43
2022/08/30 06:08:53;;;;;;;8.48;6.38;;;17.00;99.90;;;;;;5049680;28;20131;-44
2022/08/30 06:11:21;;;;;;;8.30;4.95;;;18.30;99.90;;;;;;5048815;28;20068;-43
2022/08/30 06:13:48;;;;;;;4.75;4.25;;;19.50;99.90;;;;;;5047902;28;20514;-43
2022/08/30 06:16:16;;;;;;;4.55;3.05;;;20.40;99.90;;;;;;5047887;28;20091;-42
2022/08/30 06:18:43;;;;;;;3.92;2.97;;;21.00;99.90;;;;;;5048216;28;20093;-42
2022/08/30 06:21:18;;;;;;;5.75;2.70;;;20.50;99.90;;;;;;5048097;28;20037;-44
2022/08/30 06:23:45;;;;;;;7.15;2.80;;;20.10;99.60;;;;;;5048465;28;20049;-43
2022/08/30 06:26:11;;;;;;;4.43;2.88;;;19.30;99.90;;;;;;5048137;28;20033;-43
2022/08/30 06:28:37;;;;;;;5.32;2.60;;;18.50;99.90;;;;;;5047993;28;20037;-44
2022/08/30 06:31:10;;;;;;;7.68;2.83;;;18.00;99.90;;;;;;5048223;28;20079;-43
2022/08/30 06:33:36;;;;;;;3.90;2.20;;;17.50;99.90;;;;;;5048113;28;20123;-44
2022/08/30 06:36:07;;;;;;;5.32;2.63;;;17.20;99.90;;;;;;5048251;28;20419;-43
2022/08/30 06:38:34;;;;;;;4.72;2.75;;;16.90;99.90;;;;;;5047727;28;20053;-44
2022/08/30 06:41:03;;;;;;;5.05;2.47;;;16.70;99.90;;;;;;5047981;28;20040;-43
2022/08/30 06:43:30;;;;;;;3.33;1.80;;;16.60;99.90;;;;;;5047635;28;20037;-43
2022/08/30 06:46:02;;;;;;;4.28;2.05;;;17.30;99.90;;;;;;5047581;28;20045;-44
2022/08/30 06:48:28;;;;;;;6.32;2.60;;;18.10;99.90;;;;;;5047222;28;20055;-43
2022/08/30 06:50:54;;;;;;;5.43;1.98;;;18.10;99.90;;;;;;5047901;28;20044;-43
2022/08/30 06:53:20;;;;;;;2.90;2.17;;;17.80;99.90;;;;;;5047283;28;20479;-43
2022/08/30 06:56:00;;;;;;;5.32;1.90;;;17.50;99.90;;;;;;5047033;28;20060;-45
2022/08/30 06:58:28;;;;;;;5.05;1.75;;;17.20;99.90;;;;;;5046913;28;20502;-44
2022/08/30 07:00:54;;;;;;;5.88;1.90;;;17.10;99.90;;;;;;5047361;28;20395;-43
2022/08/30 07:03:20;;;;;;;4.70;1.55;;;16.90;99.90;;;;;;5047449;28;20041;-43
2022/08/30 07:05:49;;;;;;;4.65;1.65;;;16.90;99.90;;;;;;5047371;28;20056;-42
2022/08/30 07:08:16;;;;;;;4.18;1.98;;;16.80;99.90;;;;;;5047338;28;20280;-43
2022/08/30 07:10:42;;;;;;;5.28;1.90;;;16.80;99.90;;;;;;5047435;28;20045;-47
2022/08/30 07:13:08;;;;;;;2.90;1.25;;;16.80;99.90;;;;;;5010306;28;1098246;-43
2022/08/30 07:15:35;;;;;;;2.88;1.85;;;16.90;99.90;;;;;;5048317;28;20087;-43
2022/08/30 07:20:45;;;;;;;4.00;1.48;;;17.20;99.90;;;;;;5048643;28;20048;-45
2022/08/30 07:23:11;;;;;;;3.95;1.67;;;17.10;99.90;;;;;;5047691;28;20037;-43
2022/08/30 07:25:39;;;;;;;2.60;1.55;;;17.10;99.90;;;;;;5047663;28;20447;-43
2022/08/30 07:28:08;;;;;;;3.33;2.00;;;17.10;99.90;;;;;;5048007;28;20045;-43
2022/08/30 07:30:35;;;;;;;2.33;1.30;;;17.10;99.90;;;;;;5047705;28;20051;-44
2022/08/30 07:33:00;;;;;;;3.63;1.90;;;17.00;99.90;;;;;;5047821;28;20037;-43
2022/08/30 07:35:27;;;;;;;6.03;1.90;;;17.00;99.90;;;;;;5047457;28;20044;-43
2022/08/30 07:37:52;;;;;;;3.95;1.27;;;17.10;99.90;;;;;;5046828;28;20502;-43
2022/08/30 07:40:19;;;;;;;2.58;0.90;;;17.10;99.90;;;;;;5047813;28;20162;-43
2022/08/30 07:42:44;;;;;;;4.68;1.30;;;17.20;99.90;;;;;;5047856;28;20099;-43
2022/08/30 07:45:11;;;;;;;2.45;0.82;;;17.20;99.90;;;;;;5047622;28;20245;-42
2022/08/30 07:47:37;;;;;;;1.98;1.05;;;17.30;99.90;;;;;;5047603;28;20249;-43
2022/08/30 07:50:05;;;;;;;4.20;0.90;;;17.20;99.90;;;;;;5047886;28;20387;-43
2022/08/30 07:52:31;;;;;;;3.25;1.15;;;17.30;99.90;;;;;;5047922;28;20068;-43
2022/08/30 07:54:57;;;;;;;3.13;0.60;;;17.40;99.90;;;;;;5047876;28;20056;-44
2022/08/30 07:57:23;;;;;;;1.98;0.80;;;17.50;99.90;;;;;;5047435;28;20045;-43
2022/08/30 07:59:50;;;;;;;2.08;1.08;;;17.60;99.90;;;;;;5047651;28;20395;-43
2022/08/30 08:02:16;;;;;;;1.15;0.52;;;17.70;99.90;;;;;;5047403;28;20570;-43
2022/08/30 08:04:42;;;;;;;3.20;0.75;;;17.80;99.90;;;;;;5047191;28;20164;-43
2022/08/30 08:07:08;;;;;;;2.33;0.45;;;17.80;99.90;;;;;;5047353;28;20056;-43
2022/08/30 08:09:35;;;;;;;2.88;0.68;;;17.80;99.90;;;;;;5028898;28;20049;-43
2022/08/30 08:12:04;;;;;;;4.05;0.55;;;17.90;99.90;;;;;;5047237;28;20052;-43
2022/08/30 08:14:30;;;;;;;2.22;0.50;;;18.10;99.90;;;;;;5046860;28;20127;-43
2022/08/30 08:16:55;;;;;;;2.88;0.70;;;18.40;99.90;;;;;;5047445;28;20163;-43
2022/08/30 08:19:21;;;;;;;4.35;0.60;;;18.90;99.90;;;;;;5047163;28;20143;-43
2022/08/30 08:21:47;;;;;;;1.85;0.32;;;19.80;99.90;;;;;;5046713;28;20552;-44
2022/08/30 08:24:13;;;;;;;2.50;0.40;;;21.50;97.70;;;;;;5046903;28;20045;-43
2022/08/30 08:26:39;;;;;;;2.08;0.60;;;23.60;93.40;;;;;;5046955;28;20063;-45
2022/08/30 08:29:07;;;;;;;3.55;0.43;;;24.70;85.00;;;;;;5046693;28;20402;-45
2022/08/30 08:31:33;;;;;;;4.03;0.50;;;25.70;79.80;;;;;;5047049;28;20041;-44
2022/08/30 08:33:59;;;;;;;1.88;0.30;;;26.40;74.70;;;;;;5047367;28;20041;-44
2022/08/30 08:36:25;;;;;;;2.75;0.32;;;27.20;72.90;;;;;;5047061;28;20102;-44
2022/08/30 08:38:51;;;;;;;2.88;0.35;;;27.80;69.90;;;;;;5046868;28;20047;-43
2022/08/30 08:41:35;;;;;;;2.03;0.30;;;27.90;67.50;;;;;;5046807;28;20098;-44
2022/08/30 08:44:23;;;;;;;2.25;0.30;;;28.10;65.60;;;;;;5046686;28;20072;-44
2022/08/30 08:47:09;;;;;;;1.67;0.30;;;28.70;64.40;;;;;;5046784;28;20052;-43
2022/08/30 08:49:38;;;;;;;1.48;0.15;;;28.70;64.20;;;;;;5046298;28;20049;-44
2022/08/30 08:54:58;;;;;;;2.45;0.30;;;29.60;62.60;;;;;;5047053;28;20052;-43
2022/08/30 08:57:35;;;;;;;2.72;0.52;;;30.50;61.30;;;;;;5046975;28;20051;-44
2022/08/30 09:00:03;;;;;;;0.95;0.30;;;31.00;58.30;;;;;;5046295;28;20044;-44
2022/08/30 09:02:40;;;;;;;2.97;0.40;;;31.80;57.50;;;;;;5046429;28;20056;-43
2022/08/30 09:05:07;;;;;;;1.67;0.30;;;32.10;55.00;;;;;;5046719;28;20052;-44
2022/08/30 09:07:38;;;;;;;0.82;0.20;;;32.20;53.90;;;;;;5046385;28;20045;-45
2022/08/30 09:10:05;;;;;;;1.47;0.30;;;31.70;54.30;;;;;;5046385;28;20063;-43
2022/08/30 09:12:30;;;;;;;1.50;0.30;;;30.70;54.10;;;;;;5046333;28;20057;-44
2022/08/30 09:15:14;;;;;;;1.08;0.25;;;29.60;54.70;;;;;;5046756;28;20470;-44
2022/08/30 09:17:51;;;;;;;2.13;0.28;;;28.50;55.10;;;;;;5046284;28;20741;-43
2022/08/30 09:20:45;;;;;;;3.78;0.38;;;28.00;57.20;;;;;;5046622;28;20104;-43
2022/08/30 09:23:14;;;;;;;2.58;0.30;;;29.00;56.50;;;;;;5046925;28;20106;-43
2022/08/30 09:25:52;;;;;;;1.38;0.22;;;30.20;56.20;;;;;;5046663;28;20435;-43
2022/08/30 09:28:26;;;;;;;1.15;0.20;;;29.90;53.50;;;;;;5046671;28;20095;-43
2022/08/30 09:31:00;;;;;;;2.60;0.22;;;29.50;53.70;;;;;;5046550;28;20040;-43
2022/08/30 09:33:25;;;;;;;4.97;0.50;;;28.70;54.10;;;;;;5046579;28;20045;-43
2022/08/30 09:35:51;;;;;;;1.15;0.40;;;28.30;55.80;;;;;;5046208;28;20110;-43
2022/08/30 09:38:27;;;;;;;1.63;0.20;;;27.60;56.40;;;;;;5045959;28;20048;-43
2022/08/30 09:40:56;;;;;;;1.52;0.35;;;26.50;57.70;;;;;;5045985;28;20041;-43
2022/08/30 09:43:27;;;;;;;3.65;0.30;;;26.90;60.60;;;;;;5046229;28;20045;-45
2022/08/30 09:45:59;;;;;;;2.22;0.28;;;28.00;58.30;;;;;;5045986;28;20425;-44
2022/08/30 09:48:38;;;;;;;1.02;0.30;;;28.10;57.20;;;;;;5046540;28;20053;-44
2022/08/30 09:51:09;;;;;;;2.70;0.30;;;28.70;58.20;;;;;;5046419;28;20056;-43
2022/08/30 09:53:51;;;;;;;4.68;0.30;;;29.20;57.70;;;;;;5046174;28;20040;-43
2022/08/30 09:56:17;;;;;;;;;;;29.40;57.00;;;;;;5046638;28;20040;-44
2022/08/30 09:59:09;;;;;;;3.88;0.28;;;29.40;58.30;;;;;;5046436;28;20267;-44
2022/08/30 10:01:45;;;;;;;3.20;0.30;;;29.30;56.60;;;;;;5044961;28;20517;-44
2022/08/30 10:04:13;;;;;;;1.05;0.20;;;29.10;55.80;;;;;;5049619;28;20047;-44
2022/08/30 10:06:50;;;;;;;1.70;0.25;;;29.20;57.10;;;;;;5049670;28;20044;-43
2022/08/30 10:09:56;;;;;;;4.45;0.20;;;29.60;55.00;;;;;;5049326;28;20075;-44
2022/08/30 10:12:27;;;;;;;2.05;0.30;;;30.10;56.40;;;;;;5048696;28;20048;-44
2022/08/30 10:15:10;;;;;;;1.27;0.40;;;30.10;54.10;;;;;;5049410;28;20431;-45
2022/08/30 10:17:51;;;;;;;1.25;0.30;;;30.40;52.70;;;;;;5049474;28;20091;-44
2022/08/30 10:20:22;;;;;;;1.63;0.40;;;30.30;53.20;;;;;;5049140;28;20102;-43
2022/08/30 10:22:57;;;;;;;0.98;0.20;;;30.10;52.70;;;;;;5049286;28;20391;-43
2022/08/30 10:25:49;;;;;;;1.02;0.30;;;30.00;51.90;;;;;;5049508;28;20103;-45
2022/08/30 10:28:18;;;;;;;;;;;29.20;50.90;;;;;;5049847;28;20120;-44
2022/08/30 10:30:52;;;;;;;1.00;0.30;;;28.50;53.30;;;;;;5048787;28;19931;-43
2022/08/30 10:33:25;;;;;;;2.05;0.43;;;28.50;54.40;;;;;;5049358;28;20175;-44
2022/08/30 10:35:56;;;;;;;0.52;0.20;;;28.30;53.10;;;;;;5049389;28;20041;-44
2022/08/30 10:38:43;;;;;;;0.90;0.20;;;28.40;53.20;;;;;;5049450;28;20049;-44
2022/08/30 10:41:26;;;;;;;2.10;0.30;;;28.30;53.60;;;;;;5049229;28;20088;-43
2022/08/30 10:43:52;;;;;;;4.80;0.35;;;28.30;53.80;;;;;;5049339;28;20044;-43
2022/08/30 10:46:35;;;;;;;0.93;0.25;;;28.20;53.80;;;;;;5048921;28;20033;-42
2022/08/30 10:49:04;;;;;;;0.50;0.20;;;27.60;52.90;;;;;;5048984;28;20486;-43
2022/08/30 10:52:05;;;;;;;1.52;0.25;;;26.60;53.70;;;;;;5049126;28;20087;-42
2022/08/30 10:54:53;;;;;;;1.13;0.30;;;25.90;55.40;;;;;;5049181;28;20048;-42
2022/08/30 10:57:19;;;;;;;4.57;0.98;;;25.20;57.50;;;;;;5048819;28;20076;-42
2022/08/30 10:59:58;;;;;;;2.00;0.40;;;24.60;58.50;;;;;;5048873;28;20513;-42
2022/08/30 11:02:58;;;;;;;1.58;0.30;;;24.10;58.80;;;;;;5048902;28;20037;-43
2022/08/30 11:05:42;;;;;;;2.10;0.25;;;24.00;60.80;;;;;;5049179;28;20048;-43
2022/08/30 11:08:35;;;;;;;3.97;0.38;;;24.00;62.00;;;;;;5048658;28;20049;-43
2022/08/30 11:11:19;;;;;;;1.95;0.65;;;23.80;61.50;;;;;;5048124;28;20052;-43
2022/08/30 11:13:45;;;;;;;4.45;0.55;;;23.40;62.50;;;;;;5047874;28;20053;-42
2022/08/30 11:16:17;;;;;;;2.45;0.30;;;24.10;63.70;;;;;;5048204;28;20554;-43
2022/08/30 11:18:48;;;;;;;3.50;0.30;;;22.80;64.60;;;;;;5048451;28;20667;-44
2022/08/30 11:21:17;;;;;;;1.73;0.38;;;22.60;66.00;;;;;;5048448;28;20053;-42
2022/08/30 11:24:02;;;;;;;0.65;0.20;;;22.50;66.40;;;;;;5048525;28;20048;-42
2022/08/30 11:26:53;;;;;;;0.95;0.30;;;22.40;65.70;;;;;;5048729;28;20451;-42
2022/08/30 11:29:38;;;;;;;1.85;0.20;;;22.30;66.80;;;;;;5048789;28;20123;-42
2022/08/30 11:32:13;;;;;;;2.70;0.30;;;22.50;68.80;;;;;;5047919;28;20049;-42
2022/08/30 11:34:47;;;;;;;1.15;0.20;;;22.60;66.40;;;;;;5048418;28;20045;-42
2022/08/30 11:37:39;;;;;;;1.92;0.30;;;22.40;67.40;;;;;;5048492;28;20048;-43
2022/08/30 11:40:19;;;;;;;3.47;0.50;;;22.50;67.50;;;;;;5047776;28;20091;-42
2022/08/30 11:42:50;;;;;;;5.47;0.25;;;22.70;66.70;;;;;;5047674;28;20044;-42
2022/08/30 11:45:21;;;;;;;2.00;0.27;;;22.90;68.60;;;;;;5048222;28;20501;-42
2022/08/30 11:47:53;;;;;;;2.65;0.30;;;23.20;68.30;;;;;;5047569;28;20128;-42
2022/08/30 11:50:22;;;;;;;;;;;23.40;68.20;;;;;;5048966;28;20041;-42
2022/08/30 11:53:29;;;;;;;1.67;0.52;;;23.40;67.80;;;;;;5048009;28;19920;-42
2022/08/30 11:56:00;;;;;;;1.45;0.35;;;23.40;65.50;;;;;;5047611;28;20502;-42
2022/08/30 11:58:50;;;;;;;0.75;0.22;;;23.20;65.50;;;;;;5048128;28;20052;-43
2022/08/30 12:01:24;;;;;;;1.52;0.25;;;23.00;66.90;;;;;;5047954;28;20451;-42
2022/08/30 12:04:25;;;;;;;2.38;0.30;;;22.70;68.10;;;;;;5048238;28;20047;-42
2022/08/30 12:07:02;;;;;;;1.77;0.73;;;22.70;67.40;;;;;;5048063;28;20048;-42
2022/08/30 12:09:29;;;;;;;2.10;0.20;;;22.80;67.50;;;;;;5047771;28;20063;-42
2022/08/30 12:12:06;;;;;;;1.17;0.20;;;22.90;67.00;;;;;;5047360;28;20084;-42
2022/08/30 12:14:40;;;;;;;1.90;0.40;;;22.90;66.30;;;;;;5047307;28;20495;-42
2022/08/30 12:20:48;;;;;;;1.77;0.40;;;22.50;67.30;;;;;;5047168;28;20060;-42
2022/08/30 12:23:31;;;;;;;0.75;0.20;;;22.20;67.70;;;;;;5046931;28;20095;-42
2022/08/30 12:26:18;;;;;;;2.60;0.10;;;22.30;69.00;;;;;;5046316;28;20601;-42
2022/08/30 12:28:47;;;;;;;0.40;0.17;;;22.60;69.90;;;;;;5046816;28;20633;-43
2022/08/30 12:31:16;;;;;;;1.67;0.13;;;22.80;68.80;;;;;;5046211;28;20040;-44
2022/08/30 12:33:45;;;;;;;1.48;0.20;;;22.80;68.30;;;;;;5046541;28;20046;-42
2022/08/30 12:36:14;;;;;;;1.77;0.20;;;22.60;67.30;;;;;;5046429;28;20043;-43
2022/08/30 12:38:41;;;;;;;0.32;0.10;;;22.30;68.00;;;;;;5046397;28;20171;-42
2022/08/30 12:41:07;;;;;;;1.40;0.20;;;22.10;68.50;;;;;;5045997;28;20519;-42
2022/08/30 12:43:38;;;;;;;2.17;0.17;;;22.20;69.00;;;;;;5045912;28;20045;-42
2022/08/30 12:46:09;;;;;;;1.23;0.20;;;22.30;69.60;;;;;;5046069;28;20056;-42
2022/08/30 12:48:39;;;;;;;0.40;0.10;;;22.50;69.60;;;;;;5046609;28;20044;-43
2022/08/30 12:51:05;;;;;;;0.65;0.10;;;22.70;68.30;;;;;;5046968;28;20263;-43
2022/08/30 12:53:40;;;;;;;1.08;0.20;;;22.70;67.40;;;;;;5046442;28;20049;-43
2022/08/30 12:56:09;;;;;;;1.15;0.28;;;22.80;67.20;;;;;;5046422;28;20052;-52
2022/08/30 12:58:44;;;;;;;0.60;0.20;;;23.00;67.20;;;;;;5039760;28;20048;-49
2022/08/30 13:01:31;;;;;;;0.55;0.20;;;23.10;66.80;;;;;;5040785;28;20041;-56
2022/08/30 13:04:18;;;;;;;2.00;0.20;;;23.30;68.50;;;;;;5043814;28;20109;-60
2022/08/30 13:07:00;;;;;;;5.53;0.40;;;23.50;69.30;;;;;;5045618;28;20183;-59
2022/08/30 13:09:29;;;;;;;6.22;0.20;;;23.70;69.90;;;;;;5044592;28;20470;-42